sensor_id;sensor_type;location;lat;lon;timestamp;temperature;humidity
12634;DHT22;6382;48.614;8.880;2023-12-14T00:00:10;4.30;99.90
12634;DHT22;6382;48.614;8.880;2023-12-14T00:02:37;4.30;99.90
12634;DHT22;6382;48.614;8.880;2023-12-14T00:05:04;4.30;99.90
12634;DHT22;6382;48.614;8.880;2023-12-14T00:07:31;4.30;99.90
12634;DHT22;6382;48.614;8.880;2023-12-14T00:09:58;4.40;99.90
12634;DHT22;6382;48.614;8.880;2023-12-14T00:12:25;4.40;99.90
12634;DHT22;6382;48.614;8.880;2023-12-14T00:14:52;4.40;99.90
12634;DHT22;6382;48.614;8.880;2023-12-14T00:17:18;4.40;99.90
12634;DHT22;6382;48.614;8.880;2023-12-14T00:19:45;4.40;99.90
12634;DHT22;6382;48.614;8.880;2023-12-14T00:22:12;4.40;99.90
12634;DHT22;6382;48.614;8.880;2023-12-14T00:24:39;4.40;99.90
12634;DHT22;6382;48.614;8.880;2023-12-14T00:27:05;4.50;99.90
12634;DHT22;6382;48.614;8.880;2023-12-14T00:29:32;4.40;99.90
12634;DHT22;6382;48.614;8.880;2023-12-14T00:31:59;4.50;99.90
12634;DHT22;6382;48.614;8.880;2023-12-14T00:34:26;4.50;99.90
12634;DHT22;6382;48.614;8.880;2023-12-14T00:36:52;4.40;99.90
12634;DHT22;6382;48.614;8.880;2023-12-14T00:39:19;4.40;99.90
12634;DHT22;6382;48.614;8.880;2023-12-14T00:41:46;4.50;99.90
12634;DHT22;6382;48.614;8.880;2023-12-14T00:44:12;4.50;99.90
12634;DHT22;6382;48.614;8.880;2023-12-14T00:46:39;4.50;99.90
12634;DHT22;6382;48.614;8.880;2023-12-14T00:49:08;4.50;99.90
12634;DHT22;6382;48.614;8.880;2023-12-14T00:51:34;4.50;99.90
12634;DHT22;6382;48.614;8.880;2023-12-14T00:54:01;4.50;99.90
12634;DHT22;6382;48.614;8.880;2023-12-14T00:56:28;4.50;99.90
12634;DHT22;6382;48.614;8.880;2023-12-14T00:58:55;4.50;99.90
12634;DHT22;6382;48.614;8.880;2023-12-14T01:01:22;4.50;99.90
12634;DHT22;6382;48.614;8.880;2023-12-14T01:03:49;4.40;99.90
12634;DHT22;6382;48.614;8.880;2023-12-14T01:06:15;4.40;99.90
12634;DHT22;6382;48.614;8.880;2023-12-14T01:08:43;4.40;99.90
12634;DHT22;6382;48.614;8.880;2023-12-14T01:11:09;4.30;99.90
12634;DHT22;6382;48.614;8.880;2023-12-14T01:13:37;4.30;99.90
12634;DHT22;6382;48.614;8.880;2023-12-14T01:16:04;4.30;99.90
12634;DHT22;6382;48.614;8.880;2023-12-14T01:18:31;4.30;99.90
12634;DHT22;6382;48.614;8.880;2023-12-14T01:20:58;4.30;99.90
12634;DHT22;6382;48.614;8.880;2023-12-14T01:23:25;4.40;99.90
12634;DHT22;6382;48.614;8.880;2023-12-14T01:25:52;4.40;99.90
12634;DHT22;6382;48.614;8.880;2023-12-14T01:28:19;4.40;99.90
12634;DHT22;6382;48.614;8.880;2023-12-14T01:30:46;4.50;99.90
12634;DHT22;6382;48.614;8.880;2023-12-14T01:33:13;4.50;99.90
12634;DHT22;6382;48.614;8.880;2023-12-14T01:35:40;4.50;99.90
12634;DHT22;6382;48.614;8.880;2023-12-14T01:38:07;4.40;99.90
12634;DHT22;6382;48.614;8.880;2023-12-14T01:40:34;4.40;99.90
12634;DHT22;6382;48.614;8.880;2023-12-14T01:43:07;4.30;99.90
12634;DHT22;6382;48.614;8.880;2023-12-14T01:45:35;4.30;99.90
12634;DHT22;6382;48.614;8.880;2023-12-14T01:48:02;4.30;99.90
12634;DHT22;6382;48.614;8.880;2023-12-14T01:50:29;4.30;99.90
12634;DHT22;6382;48.614;8.880;2023-12-14T01:52:56;4.30;99.90
12634;DHT22;6382;48.614;8.880;2023-12-14T01:55:23;4.40;99.90
12634;DHT22;6382;48.614;8.880;2023-12-14T01:57:51;4.40;99.90
12634;DHT22;6382;48.614;8.880;2023-12-14T02:00:21;4.50;99.90
12634;DHT22;6382;48.614;8.880;2023-12-14T02:02:51;4.50;99.90
12634;DHT22;6382;48.614;8.880;2023-12-14T02:05:17;4.50;99.90
12634;DHT22;6382;48.614;8.880;2023-12-14T02:07:44;4.50;99.90
12634;DHT22;6382;48.614;8.880;2023-12-14T02:10:11;4.50;99.90
12634;DHT22;6382;48.614;8.880;2023-12-14T02:12:38;4.60;99.90
12634;DHT22;6382;48.614;8.880;2023-12-14T02:15:05;4.50;99.90
12634;DHT22;6382;48.614;8.880;2023-12-14T02:17:32;4.50;99.90
12634;DHT22;6382;48.614;8.880;2023-12-14T02:19:59;4.60;99.90
12634;DHT22;6382;48.614;8.880;2023-12-14T02:22:27;4.60;99.90
12634;DHT22;6382;48.614;8.880;2023-12-14T02:24:53;4.60;99.90
12634;DHT22;6382;48.614;8.880;2023-12-14T02:27:21;4.60;99.90
12634;DHT22;6382;48.614;8.880;2023-12-14T02:29:47;4.60;99.90
12634;DHT22;6382;48.614;8.880;2023-12-14T02:32:14;4.50;99.90
12634;DHT22;6382;48.614;8.880;2023-12-14T02:34:41;4.60;99.90
12634;DHT22;6382;48.614;8.880;2023-12-14T02:37:08;4.50;99.90
12634;DHT22;6382;48.614;8.880;2023-12-14T02:39:35;4.50;99.90
12634;DHT22;6382;48.614;8.880;2023-12-14T02:42:02;4.50;99.90
12634;DHT22;6382;48.614;8.880;2023-12-14T02:44:29;4.50;99.90
12634;DHT22;6382;48.614;8.880;2023-12-14T02:46:55;4.50;99.90
12634;DHT22;6382;48.614;8.880;2023-12-14T02:49:22;4.50;99.90
12634;DHT22;6382;48.614;8.880;2023-12-14T02:51:49;4.40;99.90
12634;DHT22;6382;48.614;8.880;2023-12-14T02:54:16;4.50;99.90
12634;DHT22;6382;48.614;8.880;2023-12-14T02:56:42;4.50;99.90
12634;DHT22;6382;48.614;8.880;2023-12-14T02:59:09;4.50;99.90
12634;DHT22;6382;48.614;8.880;2023-12-14T03:01:36;4.50;99.90
12634;DHT22;6382;48.614;8.880;2023-12-14T03:04:03;4.50;99.90
12634;DHT22;6382;48.614;8.880;2023-12-14T03:06:30;4.50;99.90
12634;DHT22;6382;48.614;8.880;2023-12-14T03:08:57;4.50;99.90
12634;DHT22;6382;48.614;8.880;2023-12-14T03:11:24;4.50;99.90
12634;DHT22;6382;48.614;8.880;2023-12-14T03:13:51;4.50;99.90
12634;DHT22;6382;48.614;8.880;2023-12-14T03:16:18;4.50;99.90
12634;DHT22;6382;48.614;8.880;2023-12-14T03:18:45;4.50;99.90
12634;DHT22;6382;48.614;8.880;2023-12-14T03:21:12;5.20;99.90
12634;DHT22;6382;48.614;8.880;2023-12-14T03:23:38;4.60;99.90
12634;DHT22;6382;48.614;8.880;2023-12-14T03:26:05;4.50;99.90
12634;DHT22;6382;48.614;8.880;2023-12-14T03:28:33;4.50;99.90
12634;DHT22;6382;48.614;8.880;2023-12-14T03:31:00;4.50;99.90
12634;DHT22;6382;48.614;8.880;2023-12-14T03:33:27;4.60;99.90
12634;DHT22;6382;48.614;8.880;2023-12-14T03:35:54;4.60;99.90
12634;DHT22;6382;48.614;8.880;2023-12-14T03:38:21;4.60;99.90
12634;DHT22;6382;48.614;8.880;2023-12-14T03:40:47;4.60;99.90
12634;DHT22;6382;48.614;8.880;2023-12-14T03:43:14;4.60;99.90
12634;DHT22;6382;48.614;8.880;2023-12-14T03:45:41;4.60;99.90
12634;DHT22;6382;48.614;8.880;2023-12-14T03:48:08;4.70;99.90
12634;DHT22;6382;48.614;8.880;2023-12-14T03:50:35;4.70;99.90
12634;DHT22;6382;48.614;8.880;2023-12-14T03:53:01;4.70;99.90
12634;DHT22;6382;48.614;8.880;2023-12-14T03:55:28;4.70;99.90
12634;DHT22;6382;48.614;8.880;2023-12-14T03:57:55;4.70;99.90
12634;DHT22;6382;48.614;8.880;2023-12-14T04:00:22;4.70;99.90
12634;DHT22;6382;48.614;8.880;2023-12-14T04:02:49;4.60;99.90
12634;DHT22;6382;48.614;8.880;2023-12-14T04:05:16;4.60;99.90
12634;DHT22;6382;48.614;8.880;2023-12-14T04:07:43;4.60;99.90
12634;DHT22;6382;48.614;8.880;2023-12-14T04:10:10;4.60;99.90
12634;DHT22;6382;48.614;8.880;2023-12-14T04:12:38;4.60;99.90
12634;DHT22;6382;48.614;8.880;2023-12-14T04:15:06;4.60;99.90
12634;DHT22;6382;48.614;8.880;2023-12-14T04:17:33;4.60;99.90
12634;DHT22;6382;48.614;8.880;2023-12-14T04:20:00;4.60;99.90
12634;DHT22;6382;48.614;8.880;2023-12-14T04:22:27;4.60;99.90
12634;DHT22;6382;48.614;8.880;2023-12-14T04:24:54;4.70;99.90
12634;DHT22;6382;48.614;8.880;2023-12-14T04:27:21;4.80;99.90
12634;DHT22;6382;48.614;8.880;2023-12-14T04:29:54;4.80;99.90
12634;DHT22;6382;48.614;8.880;2023-12-14T04:32:21;4.80;99.90
12634;DHT22;6382;48.614;8.880;2023-12-14T04:34:48;4.80;99.90
12634;DHT22;6382;48.614;8.880;2023-12-14T04:37:15;4.70;99.90
12634;DHT22;6382;48.614;8.880;2023-12-14T04:39:42;4.70;99.90
12634;DHT22;6382;48.614;8.880;2023-12-14T04:42:08;4.80;99.90
12634;DHT22;6382;48.614;8.880;2023-12-14T04:44:35;4.80;99.90
12634;DHT22;6382;48.614;8.880;2023-12-14T04:47:02;4.80;99.90
12634;DHT22;6382;48.614;8.880;2023-12-14T04:49:29;4.80;99.90
12634;DHT22;6382;48.614;8.880;2023-12-14T04:51:56;4.70;99.90
12634;DHT22;6382;48.614;8.880;2023-12-14T04:54:23;4.80;99.90
12634;DHT22;6382;48.614;8.880;2023-12-14T04:56:50;4.80;99.90
12634;DHT22;6382;48.614;8.880;2023-12-14T04:59:17;4.80;99.90
12634;DHT22;6382;48.614;8.880;2023-12-14T05:01:43;4.80;99.90
12634;DHT22;6382;48.614;8.880;2023-12-14T05:04:11;4.80;99.90
12634;DHT22;6382;48.614;8.880;2023-12-14T05:06:38;4.70;99.90
12634;DHT22;6382;48.614;8.880;2023-12-14T05:09:05;4.60;99.90
12634;DHT22;6382;48.614;8.880;2023-12-14T05:11:33;4.60;99.90
12634;DHT22;6382;48.614;8.880;2023-12-14T05:13:59;4.60;99.90
12634;DHT22;6382;48.614;8.880;2023-12-14T05:16:26;4.60;99.90
12634;DHT22;6382;48.614;8.880;2023-12-14T05:18:53;4.70;99.90
12634;DHT22;6382;48.614;8.880;2023-12-14T05:21:20;4.60;99.90
12634;DHT22;6382;48.614;8.880;2023-12-14T05:23:47;4.60;99.90
12634;DHT22;6382;48.614;8.880;2023-12-14T05:26:14;4.70;99.90
12634;DHT22;6382;48.614;8.880;2023-12-14T05:28:41;4.70;99.90
12634;DHT22;6382;48.614;8.880;2023-12-14T05:31:08;4.70;99.90
12634;DHT22;6382;48.614;8.880;2023-12-14T05:33:38;4.70;99.90
12634;DHT22;6382;48.614;8.880;2023-12-14T05:36:05;4.80;99.90
12634;DHT22;6382;48.614;8.880;2023-12-14T05:38:40;4.80;99.90
12634;DHT22;6382;48.614;8.880;2023-12-14T05:41:07;4.90;99.90
12634;DHT22;6382;48.614;8.880;2023-12-14T05:43:34;4.80;99.90
12634;DHT22;6382;48.614;8.880;2023-12-14T05:46:00;4.90;99.90
12634;DHT22;6382;48.614;8.880;2023-12-14T05:48:27;4.80;99.90
12634;DHT22;6382;48.614;8.880;2023-12-14T05:50:55;4.80;99.90
12634;DHT22;6382;48.614;8.880;2023-12-14T05:53:22;4.80;99.90
12634;DHT22;6382;48.614;8.880;2023-12-14T05:55:49;4.80;99.90
12634;DHT22;6382;48.614;8.880;2023-12-14T05:58:16;4.90;99.90
12634;DHT22;6382;48.614;8.880;2023-12-14T06:00:43;4.90;99.90
12634;DHT22;6382;48.614;8.880;2023-12-14T06:03:10;5.00;99.90
12634;DHT22;6382;48.614;8.880;2023-12-14T06:05:36;5.00;99.90
12634;DHT22;6382;48.614;8.880;2023-12-14T06:08:03;5.00;99.90
12634;DHT22;6382;48.614;8.880;2023-12-14T06:10:30;5.00;99.90
12634;DHT22;6382;48.614;8.880;2023-12-14T06:12:58;5.10;99.90
12634;DHT22;6382;48.614;8.880;2023-12-14T06:15:24;5.00;99.90
12634;DHT22;6382;48.614;8.880;2023-12-14T06:17:51;5.00;99.90
12634;DHT22;6382;48.614;8.880;2023-12-14T06:20:18;5.00;99.90
12634;DHT22;6382;48.614;8.880;2023-12-14T06:22:45;5.00;99.90
12634;DHT22;6382;48.614;8.880;2023-12-14T06:25:12;5.00;99.90
12634;DHT22;6382;48.614;8.880;2023-12-14T06:27:39;5.00;99.90
12634;DHT22;6382;48.614;8.880;2023-12-14T06:30:05;5.00;99.90
12634;DHT22;6382;48.614;8.880;2023-12-14T06:32:33;5.10;99.90
12634;DHT22;6382;48.614;8.880;2023-12-14T06:35:00;5.00;99.90
12634;DHT22;6382;48.614;8.880;2023-12-14T06:37:27;5.00;99.90
12634;DHT22;6382;48.614;8.880;2023-12-14T06:39:54;5.00;99.90
12634;DHT22;6382;48.614;8.880;2023-12-14T06:42:21;5.00;99.90
12634;DHT22;6382;48.614;8.880;2023-12-14T06:44:48;5.00;99.90
12634;DHT22;6382;48.614;8.880;2023-12-14T06:47:14;5.00;99.90
12634;DHT22;6382;48.614;8.880;2023-12-14T06:49:41;5.00;99.90
12634;DHT22;6382;48.614;8.880;2023-12-14T06:52:08;5.00;99.90
12634;DHT22;6382;48.614;8.880;2023-12-14T06:54:36;5.00;99.90
12634;DHT22;6382;48.614;8.880;2023-12-14T06:57:03;5.00;99.90
12634;DHT22;6382;48.614;8.880;2023-12-14T06:59:29;5.00;99.90
12634;DHT22;6382;48.614;8.880;2023-12-14T07:01:57;4.90;99.90
12634;DHT22;6382;48.614;8.880;2023-12-14T07:04:23;4.90;99.90
12634;DHT22;6382;48.614;8.880;2023-12-14T07:06:51;4.90;99.90
12634;DHT22;6382;48.614;8.880;2023-12-14T07:09:18;5.00;99.90
12634;DHT22;6382;48.614;8.880;2023-12-14T07:11:46;4.90;99.90
12634;DHT22;6382;48.614;8.880;2023-12-14T07:14:13;4.90;99.90
12634;DHT22;6382;48.614;8.880;2023-12-14T07:16:41;4.90;99.90
12634;DHT22;6382;48.614;8.880;2023-12-14T07:19:08;4.90;99.90
12634;DHT22;6382;48.614;8.880;2023-12-14T07:21:37;4.90;99.90
12634;DHT22;6382;48.614;8.880;2023-12-14T07:24:04;4.90;99.90
12634;DHT22;6382;48.614;8.880;2023-12-14T07:26:31;4.90;99.90
12634;DHT22;6382;48.614;8.880;2023-12-14T07:28:58;5.00;99.90
12634;DHT22;6382;48.614;8.880;2023-12-14T07:31:25;5.00;99.90
12634;DHT22;6382;48.614;8.880;2023-12-14T07:33:55;5.00;99.90
12634;DHT22;6382;48.614;8.880;2023-12-14T07:36:21;5.10;99.90
12634;DHT22;6382;48.614;8.880;2023-12-14T07:38:49;5.00;99.90
12634;DHT22;6382;48.614;8.880;2023-12-14T07:41:20;5.00;99.90
12634;DHT22;6382;48.614;8.880;2023-12-14T07:43:49;5.00;99.90
12634;DHT22;6382;48.614;8.880;2023-12-14T07:46:16;5.00;99.90
12634;DHT22;6382;48.614;8.880;2023-12-14T07:48:43;5.10;99.90
12634;DHT22;6382;48.614;8.880;2023-12-14T07:51:10;5.10;99.90
12634;DHT22;6382;48.614;8.880;2023-12-14T07:53:37;5.10;99.90
12634;DHT22;6382;48.614;8.880;2023-12-14T07:56:04;5.20;99.90
12634;DHT22;6382;48.614;8.880;2023-12-14T07:58:31;5.20;99.90
12634;DHT22;6382;48.614;8.880;2023-12-14T08:00:58;5.20;99.90
12634;DHT22;6382;48.614;8.880;2023-12-14T08:03:25;5.20;99.90
12634;DHT22;6382;48.614;8.880;2023-12-14T08:05:51;5.30;99.90
12634;DHT22;6382;48.614;8.880;2023-12-14T08:08:18;5.30;99.90
12634;DHT22;6382;48.614;8.880;2023-12-14T08:10:45;5.30;99.90
12634;DHT22;6382;48.614;8.880;2023-12-14T08:13:12;5.30;99.90
12634;DHT22;6382;48.614;8.880;2023-12-14T08:15:38;5.30;99.90
12634;DHT22;6382;48.614;8.880;2023-12-14T08:18:05;5.40;99.90
12634;DHT22;6382;48.614;8.880;2023-12-14T08:20:32;5.40;99.90
12634;DHT22;6382;48.614;8.880;2023-12-14T08:22:59;5.40;99.90
12634;DHT22;6382;48.614;8.880;2023-12-14T08:25:26;5.80;99.90
12634;DHT22;6382;48.614;8.880;2023-12-14T08:27:53;5.40;99.90
12634;DHT22;6382;48.614;8.880;2023-12-14T08:30:19;5.70;99.90
12634;DHT22;6382;48.614;8.880;2023-12-14T08:32:47;5.50;99.90
12634;DHT22;6382;48.614;8.880;2023-12-14T08:35:14;5.50;99.90
12634;DHT22;6382;48.614;8.880;2023-12-14T08:37:41;5.60;99.90
12634;DHT22;6382;48.614;8.880;2023-12-14T08:40:10;5.60;99.90
12634;DHT22;6382;48.614;8.880;2023-12-14T08:42:37;5.60;99.90
12634;DHT22;6382;48.614;8.880;2023-12-14T08:45:04;5.60;99.90
12634;DHT22;6382;48.614;8.880;2023-12-14T08:47:35;5.60;99.90
12634;DHT22;6382;48.614;8.880;2023-12-14T08:50:02;5.60;99.90
12634;DHT22;6382;48.614;8.880;2023-12-14T08:52:29;5.70;99.90
12634;DHT22;6382;48.614;8.880;2023-12-14T08:54:56;5.70;99.90
12634;DHT22;6382;48.614;8.880;2023-12-14T08:57:23;5.70;99.90
12634;DHT22;6382;48.614;8.880;2023-12-14T08:59:50;5.80;99.90
12634;DHT22;6382;48.614;8.880;2023-12-14T09:02:16;5.80;99.90
12634;DHT22;6382;48.614;8.880;2023-12-14T09:04:43;5.90;99.90
12634;DHT22;6382;48.614;8.880;2023-12-14T09:07:10;5.90;99.90
12634;DHT22;6382;48.614;8.880;2023-12-14T09:09:37;5.90;99.90
12634;DHT22;6382;48.614;8.880;2023-12-14T09:12:04;6.00;99.90
12634;DHT22;6382;48.614;8.880;2023-12-14T09:14:31;6.00;99.90
12634;DHT22;6382;48.614;8.880;2023-12-14T09:16:58;6.10;99.90
12634;DHT22;6382;48.614;8.880;2023-12-14T09:19:25;6.10;99.90
12634;DHT22;6382;48.614;8.880;2023-12-14T09:21:52;6.10;99.90
12634;DHT22;6382;48.614;8.880;2023-12-14T09:24:19;6.10;99.90
12634;DHT22;6382;48.614;8.880;2023-12-14T09:26:46;6.10;99.90
12634;DHT22;6382;48.614;8.880;2023-12-14T09:29:13;6.10;99.90
12634;DHT22;6382;48.614;8.880;2023-12-14T09:31:41;6.10;99.90
12634;DHT22;6382;48.614;8.880;2023-12-14T09:34:10;6.10;99.90
12634;DHT22;6382;48.614;8.880;2023-12-14T09:36:37;6.20;99.90
12634;DHT22;6382;48.614;8.880;2023-12-14T09:39:04;6.20;99.90
12634;DHT22;6382;48.614;8.880;2023-12-14T09:41:31;6.20;99.90
12634;DHT22;6382;48.614;8.880;2023-12-14T09:43:58;6.30;99.90
12634;DHT22;6382;48.614;8.880;2023-12-14T09:46:26;6.30;99.90
12634;DHT22;6382;48.614;8.880;2023-12-14T09:48:53;6.30;99.90
12634;DHT22;6382;48.614;8.880;2023-12-14T09:51:21;6.30;99.90
12634;DHT22;6382;48.614;8.880;2023-12-14T09:53:50;6.30;99.90
12634;DHT22;6382;48.614;8.880;2023-12-14T09:56:19;6.40;99.90
12634;DHT22;6382;48.614;8.880;2023-12-14T09:58:46;6.40;99.90
12634;DHT22;6382;48.614;8.880;2023-12-14T10:01:25;6.40;99.90
12634;DHT22;6382;48.614;8.880;2023-12-14T10:06:35;6.40;99.90
12634;DHT22;6382;48.614;8.880;2023-12-14T10:09:02;6.40;99.90
12634;DHT22;6382;48.614;8.880;2023-12-14T10:11:29;6.50;99.90
12634;DHT22;6382;48.614;8.880;2023-12-14T10:13:56;6.50;99.90
12634;DHT22;6382;48.614;8.880;2023-12-14T10:16:26;6.60;99.90
12634;DHT22;6382;48.614;8.880;2023-12-14T10:18:55;6.60;99.90
12634;DHT22;6382;48.614;8.880;2023-12-14T10:21:22;6.70;99.90
12634;DHT22;6382;48.614;8.880;2023-12-14T10:23:49;6.70;99.90
12634;DHT22;6382;48.614;8.880;2023-12-14T10:26:16;6.80;99.90
12634;DHT22;6382;48.614;8.880;2023-12-14T10:28:43;6.80;99.90
12634;DHT22;6382;48.614;8.880;2023-12-14T10:31:10;6.90;99.90
12634;DHT22;6382;48.614;8.880;2023-12-14T10:33:38;7.00;99.90
12634;DHT22;6382;48.614;8.880;2023-12-14T10:36:05;7.00;99.90
12634;DHT22;6382;48.614;8.880;2023-12-14T10:38:32;7.00;99.90
12634;DHT22;6382;48.614;8.880;2023-12-14T10:40:59;9.00;99.90
12634;DHT22;6382;48.614;8.880;2023-12-14T10:43:27;8.70;99.90
12634;DHT22;6382;48.614;8.880;2023-12-14T10:46:15;8.70;99.90
12634;DHT22;6382;48.614;8.880;2023-12-14T10:48:43;9.10;99.90
12634;DHT22;6382;48.614;8.880;2023-12-14T10:51:11;9.60;99.90
12634;DHT22;6382;48.614;8.880;2023-12-14T10:53:38;9.00;99.90
12634;DHT22;6382;48.614;8.880;2023-12-14T10:56:08;9.40;99.90
12634;DHT22;6382;48.614;8.880;2023-12-14T10:58:53;7.40;99.90
12634;DHT22;6382;48.614;8.880;2023-12-14T11:01:20;7.30;99.90
12634;DHT22;6382;48.614;8.880;2023-12-14T11:03:51;8.90;99.90
12634;DHT22;6382;48.614;8.880;2023-12-14T11:08:59;7.20;99.90
12634;DHT22;6382;48.614;8.880;2023-12-14T11:11:29;9.10;99.90
12634;DHT22;6382;48.614;8.880;2023-12-14T11:13:56;7.40;99.90
12634;DHT22;6382;48.614;8.880;2023-12-14T11:16:23;7.30;99.90
12634;DHT22;6382;48.614;8.880;2023-12-14T11:21:38;7.40;99.90
12634;DHT22;6382;48.614;8.880;2023-12-14T11:24:05;8.50;99.90
12634;DHT22;6382;48.614;8.880;2023-12-14T11:26:32;9.30;99.90
12634;DHT22;6382;48.614;8.880;2023-12-14T11:29:03;9.60;99.90
12634;DHT22;6382;48.614;8.880;2023-12-14T11:31:31;9.80;99.90
12634;DHT22;6382;48.614;8.880;2023-12-14T11:34:01;10.00;99.90
12634;DHT22;6382;48.614;8.880;2023-12-14T11:36:30;7.70;99.90
12634;DHT22;6382;48.614;8.880;2023-12-14T11:38:57;6.40;99.90
12634;DHT22;6382;48.614;8.880;2023-12-14T11:41:33;10.00;99.90
12634;DHT22;6382;48.614;8.880;2023-12-14T11:44:01;7.80;99.90
12634;DHT22;6382;48.614;8.880;2023-12-14T11:46:28;7.00;99.90
12634;DHT22;6382;48.614;8.880;2023-12-14T11:48:56;8.40;99.90
12634;DHT22;6382;48.614;8.880;2023-12-14T11:51:23;8.90;99.90
12634;DHT22;6382;48.614;8.880;2023-12-14T11:53:52;9.90;99.90
12634;DHT22;6382;48.614;8.880;2023-12-14T11:56:19;8.90;99.90
12634;DHT22;6382;48.614;8.880;2023-12-14T11:58:47;8.80;99.90
12634;DHT22;6382;48.614;8.880;2023-12-14T12:01:14;7.40;99.90
12634;DHT22;6382;48.614;8.880;2023-12-14T12:03:43;7.30;99.90
12634;DHT22;6382;48.614;8.880;2023-12-14T12:06:23;7.30;99.90
12634;DHT22;6382;48.614;8.880;2023-12-14T12:08:51;7.20;99.90
12634;DHT22;6382;48.614;8.880;2023-12-14T12:11:18;7.40;99.90
12634;DHT22;6382;48.614;8.880;2023-12-14T12:13:56;9.70;99.90
12634;DHT22;6382;48.614;8.880;2023-12-14T12:16:24;7.20;99.90
12634;DHT22;6382;48.614;8.880;2023-12-14T12:18:52;7.30;99.90
12634;DHT22;6382;48.614;8.880;2023-12-14T12:21:19;9.30;99.90
12634;DHT22;6382;48.614;8.880;2023-12-14T12:23:46;7.20;99.90
12634;DHT22;6382;48.614;8.880;2023-12-14T12:26:14;10.00;99.90
12634;DHT22;6382;48.614;8.880;2023-12-14T12:28:41;9.50;99.90
12634;DHT22;6382;48.614;8.880;2023-12-14T12:31:08;9.30;99.90
12634;DHT22;6382;48.614;8.880;2023-12-14T12:33:35;7.40;99.90
12634;DHT22;6382;48.614;8.880;2023-12-14T12:36:05;7.80;99.90
12634;DHT22;6382;48.614;8.880;2023-12-14T12:38:32;7.50;99.90
12634;DHT22;6382;48.614;8.880;2023-12-14T12:41:00;9.50;99.90
12634;DHT22;6382;48.614;8.880;2023-12-14T12:43:28;7.30;99.90
12634;DHT22;6382;48.614;8.880;2023-12-14T12:45:56;9.60;99.90
12634;DHT22;6382;48.614;8.880;2023-12-14T12:48:24;5.30;99.90
12634;DHT22;6382;48.614;8.880;2023-12-14T12:50:53;9.10;99.90
12634;DHT22;6382;48.614;8.880;2023-12-14T12:53:21;7.50;99.90
12634;DHT22;6382;48.614;8.880;2023-12-14T12:55:48;7.40;99.90
12634;DHT22;6382;48.614;8.880;2023-12-14T12:58:15;7.40;99.90
12634;DHT22;6382;48.614;8.880;2023-12-14T13:00:42;7.40;99.90
12634;DHT22;6382;48.614;8.880;2023-12-14T13:03:09;5.70;99.90
12634;DHT22;6382;48.614;8.880;2023-12-14T13:05:37;7.20;99.90
12634;DHT22;6382;48.614;8.880;2023-12-14T13:08:04;7.40;99.90
12634;DHT22;6382;48.614;8.880;2023-12-14T13:10:31;7.30;99.90
12634;DHT22;6382;48.614;8.880;2023-12-14T13:12:59;9.30;99.90
12634;DHT22;6382;48.614;8.880;2023-12-14T13:15:27;7.20;99.90
12634;DHT22;6382;48.614;8.880;2023-12-14T13:17:56;7.20;99.90
12634;DHT22;6382;48.614;8.880;2023-12-14T13:20:24;7.20;99.90
12634;DHT22;6382;48.614;8.880;2023-12-14T13:22:51;5.60;99.90
12634;DHT22;6382;48.614;8.880;2023-12-14T13:25:20;9.00;99.90
12634;DHT22;6382;48.614;8.880;2023-12-14T13:27:49;7.30;99.90
12634;DHT22;6382;48.614;8.880;2023-12-14T13:30:16;8.50;99.90
12634;DHT22;6382;48.614;8.880;2023-12-14T13:32:45;7.20;99.90
12634;DHT22;6382;48.614;8.880;2023-12-14T13:35:12;8.90;99.90
12634;DHT22;6382;48.614;8.880;2023-12-14T13:37:40;5.30;99.90
12634;DHT22;6382;48.614;8.880;2023-12-14T13:40:07;10.10;99.90
12634;DHT22;6382;48.614;8.880;2023-12-14T13:42:38;7.10;99.90
12634;DHT22;6382;48.614;8.880;2023-12-14T13:45:20;7.20;99.90
12634;DHT22;6382;48.614;8.880;2023-12-14T13:47:49;7.00;99.90
12634;DHT22;6382;48.614;8.880;2023-12-14T13:50:16;8.00;99.90
12634;DHT22;6382;48.614;8.880;2023-12-14T13:52:43;9.30;99.90
12634;DHT22;6382;48.614;8.880;2023-12-14T13:55:11;8.90;99.90
12634;DHT22;6382;48.614;8.880;2023-12-14T13:57:38;7.10;99.90
12634;DHT22;6382;48.614;8.880;2023-12-14T14:00:05;8.90;99.90
12634;DHT22;6382;48.614;8.880;2023-12-14T14:02:32;7.20;99.90
12634;DHT22;6382;48.614;8.880;2023-12-14T14:05:02;9.30;99.90
12634;DHT22;6382;48.614;8.880;2023-12-14T14:07:29;7.10;99.90
12634;DHT22;6382;48.614;8.880;2023-12-14T14:09:58;7.70;99.90
12634;DHT22;6382;48.614;8.880;2023-12-14T14:12:25;8.50;99.90
12634;DHT22;6382;48.614;8.880;2023-12-14T14:14:52;7.10;99.90
12634;DHT22;6382;48.614;8.880;2023-12-14T14:17:19;7.10;99.90
12634;DHT22;6382;48.614;8.880;2023-12-14T14:19:46;7.10;99.90
12634;DHT22;6382;48.614;8.880;2023-12-14T14:22:13;4.50;99.90
12634;DHT22;6382;48.614;8.880;2023-12-14T14:24:43;7.00;99.90
12634;DHT22;6382;48.614;8.880;2023-12-14T14:27:10;8.40;99.90
12634;DHT22;6382;48.614;8.880;2023-12-14T14:29:37;10.00;99.90
12634;DHT22;6382;48.614;8.880;2023-12-14T14:32:04;9.60;99.90
12634;DHT22;6382;48.614;8.880;2023-12-14T14:34:31;6.70;99.90
12634;DHT22;6382;48.614;8.880;2023-12-14T14:36:58;6.70;99.90
12634;DHT22;6382;48.614;8.880;2023-12-14T14:39:25;6.70;99.90
12634;DHT22;6382;48.614;8.880;2023-12-14T14:41:52;6.60;99.90
12634;DHT22;6382;48.614;8.880;2023-12-14T14:44:19;6.50;99.90
12634;DHT22;6382;48.614;8.880;2023-12-14T14:46:47;6.60;99.90
12634;DHT22;6382;48.614;8.880;2023-12-14T14:49:14;6.60;99.90
12634;DHT22;6382;48.614;8.880;2023-12-14T14:51:41;6.50;99.90
12634;DHT22;6382;48.614;8.880;2023-12-14T14:54:08;6.50;99.90
12634;DHT22;6382;48.614;8.880;2023-12-14T14:56:35;6.50;99.90
12634;DHT22;6382;48.614;8.880;2023-12-14T14:59:02;6.40;99.90
12634;DHT22;6382;48.614;8.880;2023-12-14T15:01:32;6.40;99.90
12634;DHT22;6382;48.614;8.880;2023-12-14T15:03:59;6.40;99.90
12634;DHT22;6382;48.614;8.880;2023-12-14T15:06:26;6.40;99.90
12634;DHT22;6382;48.614;8.880;2023-12-14T15:08:53;7.30;99.90
12634;DHT22;6382;48.614;8.880;2023-12-14T15:11:20;6.30;99.90
12634;DHT22;6382;48.614;8.880;2023-12-14T15:13:47;6.30;99.90
12634;DHT22;6382;48.614;8.880;2023-12-14T15:16:14;6.20;99.90
12634;DHT22;6382;48.614;8.880;2023-12-14T15:18:40;6.30;99.90
12634;DHT22;6382;48.614;8.880;2023-12-14T15:21:09;6.10;99.90
12634;DHT22;6382;48.614;8.880;2023-12-14T15:23:39;7.80;99.90
12634;DHT22;6382;48.614;8.880;2023-12-14T15:26:06;6.10;99.90
12634;DHT22;6382;48.614;8.880;2023-12-14T15:28:35;6.10;99.90
12634;DHT22;6382;48.614;8.880;2023-12-14T15:31:03;6.10;99.90
12634;DHT22;6382;48.614;8.880;2023-12-14T15:33:30;6.00;99.90
12634;DHT22;6382;48.614;8.880;2023-12-14T15:35:57;6.00;99.90
12634;DHT22;6382;48.614;8.880;2023-12-14T15:38:24;6.00;99.90
12634;DHT22;6382;48.614;8.880;2023-12-14T15:40:51;5.90;99.90
12634;DHT22;6382;48.614;8.880;2023-12-14T15:43:18;5.90;99.90
12634;DHT22;6382;48.614;8.880;2023-12-14T15:45:44;5.90;99.90
12634;DHT22;6382;48.614;8.880;2023-12-14T15:48:11;5.90;99.90
12634;DHT22;6382;48.614;8.880;2023-12-14T15:50:38;5.90;99.90
12634;DHT22;6382;48.614;8.880;2023-12-14T15:53:05;5.90;99.90
12634;DHT22;6382;48.614;8.880;2023-12-14T15:55:35;5.90;99.90
12634;DHT22;6382;48.614;8.880;2023-12-14T15:58:02;5.90;99.90
12634;DHT22;6382;48.614;8.880;2023-12-14T16:00:29;6.70;99.90
12634;DHT22;6382;48.614;8.880;2023-12-14T16:02:59;5.80;99.90
12634;DHT22;6382;48.614;8.880;2023-12-14T16:05:27;5.80;99.90
12634;DHT22;6382;48.614;8.880;2023-12-14T16:07:54;5.80;99.90
12634;DHT22;6382;48.614;8.880;2023-12-14T16:10:20;5.80;99.90